< < Back
Terminal Aerodrome Forecast


Current Version              Previous Versions:   1  2  3  4  5  6  7  8  9  

Terminal Aerodrome Forecast

654
FTUS44 KMOB 300500
TAFPNS
TAF
KPNS 300528Z 3006/3106 15006KT P6SM VCSH FEW030 SCT100 BKN200
     FM301500 17013KT P6SM VCTS SCT030CB BKN120 BKN250 PROB30
      3016/3022 4SM TSRA BKN030CB
     FM310100 18005KT P6SM FEW040 SCT100 BKN200=



Latest METAR

775
SAUS70 KWBC 310200 RRE
MTRPNS
METAR KPNS 310153Z 17006KT 10SM FEW020 27/24 A3007 RMK AO2 SLP184
T02720244


USA.gov is the U.S. government's official web portal to all federal, state and local government web resources and services.